sensor_id;sensor_type;location;lat;lon;timestamp;P1;durP1;ratioP1;P2;durP2;ratioP2
12554;SDS011;6343;50.868;4.700;2023-05-18T00:02:00;9.07;;;3.03;;
12554;SDS011;6343;50.868;4.700;2023-05-18T00:04:28;9.37;;;3.03;;
12554;SDS011;6343;50.868;4.700;2023-05-18T00:06:55;9.90;;;3.13;;
12554;SDS011;6343;50.868;4.700;2023-05-18T00:09:26;11.40;;;2.93;;
12554;SDS011;6343;50.868;4.700;2023-05-18T00:11:52;10.43;;;3.40;;
12554;SDS011;6343;50.868;4.700;2023-05-18T00:14:18;9.40;;;3.00;;
12554;SDS011;6343;50.868;4.700;2023-05-18T00:16:45;10.10;;;3.43;;
12554;SDS011;6343;50.868;4.700;2023-05-18T00:19:11;11.37;;;2.90;;
12554;SDS011;6343;50.868;4.700;2023-05-18T00:21:43;6.53;;;2.80;;
12554;SDS011;6343;50.868;4.700;2023-05-18T00:24:13;7.67;;;3.10;;
12554;SDS011;6343;50.868;4.700;2023-05-18T00:26:41;7.87;;;2.90;;
12554;SDS011;6343;50.868;4.700;2023-05-18T00:29:07;5.73;;;3.27;;
12554;SDS011;6343;50.868;4.700;2023-05-18T00:31:34;13.30;;;3.20;;
12554;SDS011;6343;50.868;4.700;2023-05-18T00:34:02;7.87;;;3.03;;
12554;SDS011;6343;50.868;4.700;2023-05-18T00:36:29;9.33;;;3.23;;
12554;SDS011;6343;50.868;4.700;2023-05-18T00:38:56;8.27;;;2.97;;
12554;SDS011;6343;50.868;4.700;2023-05-18T00:41:22;13.33;;;3.50;;
12554;SDS011;6343;50.868;4.700;2023-05-18T00:43:49;11.23;;;3.97;;
12554;SDS011;6343;50.868;4.700;2023-05-18T00:46:15;11.33;;;3.07;;
12554;SDS011;6343;50.868;4.700;2023-05-18T00:48:41;9.77;;;3.20;;
12554;SDS011;6343;50.868;4.700;2023-05-18T00:51:08;9.10;;;3.07;;
12554;SDS011;6343;50.868;4.700;2023-05-18T00:53:34;12.73;;;3.53;;
12554;SDS011;6343;50.868;4.700;2023-05-18T00:56:01;8.63;;;3.00;;
12554;SDS011;6343;50.868;4.700;2023-05-18T00:58:27;11.20;;;3.53;;
12554;SDS011;6343;50.868;4.700;2023-05-18T01:00:54;8.77;;;3.57;;
12554;SDS011;6343;50.868;4.700;2023-05-18T01:03:20;11.83;;;3.40;;
12554;SDS011;6343;50.868;4.700;2023-05-18T01:05:47;13.07;;;3.47;;
12554;SDS011;6343;50.868;4.700;2023-05-18T01:08:17;10.30;;;3.43;;
12554;SDS011;6343;50.868;4.700;2023-05-18T01:10:43;11.90;;;3.47;;
12554;SDS011;6343;50.868;4.700;2023-05-18T01:13:21;8.43;;;3.53;;
12554;SDS011;6343;50.868;4.700;2023-05-18T01:15:49;10.13;;;3.33;;
12554;SDS011;6343;50.868;4.700;2023-05-18T01:18:26;15.83;;;3.83;;
12554;SDS011;6343;50.868;4.700;2023-05-18T01:28:20;10.03;;;3.37;;
12554;SDS011;6343;50.868;4.700;2023-05-18T01:30:50;14.27;;;3.73;;
12554;SDS011;6343;50.868;4.700;2023-05-18T01:33:16;6.40;;;3.13;;
12554;SDS011;6343;50.868;4.700;2023-05-18T01:35:43;5.20;;;2.97;;
12554;SDS011;6343;50.868;4.700;2023-05-18T01:38:15;8.67;;;3.20;;
12554;SDS011;6343;50.868;4.700;2023-05-18T01:40:46;10.40;;;3.53;;
12554;SDS011;6343;50.868;4.700;2023-05-18T01:43:14;12.10;;;3.90;;
12554;SDS011;6343;50.868;4.700;2023-05-18T01:45:42;10.40;;;3.30;;
12554;SDS011;6343;50.868;4.700;2023-05-18T01:48:09;11.23;;;3.30;;
12554;SDS011;6343;50.868;4.700;2023-05-18T01:50:37;17.30;;;3.77;;
12554;SDS011;6343;50.868;4.700;2023-05-18T01:53:07;10.87;;;3.50;;
12554;SDS011;6343;50.868;4.700;2023-05-18T01:55:36;8.37;;;3.70;;
12554;SDS011;6343;50.868;4.700;2023-05-18T01:58:03;9.23;;;3.30;;
12554;SDS011;6343;50.868;4.700;2023-05-18T02:00:31;14.77;;;3.83;;
12554;SDS011;6343;50.868;4.700;2023-05-18T02:02:57;7.87;;;3.40;;
12554;SDS011;6343;50.868;4.700;2023-05-18T02:05:23;9.40;;;3.10;;
12554;SDS011;6343;50.868;4.700;2023-05-18T02:07:50;8.47;;;3.57;;
12554;SDS011;6343;50.868;4.700;2023-05-18T02:10:16;8.67;;;3.30;;
12554;SDS011;6343;50.868;4.700;2023-05-18T02:12:42;12.07;;;4.00;;
12554;SDS011;6343;50.868;4.700;2023-05-18T02:15:08;10.10;;;3.90;;
12554;SDS011;6343;50.868;4.700;2023-05-18T02:17:35;12.20;;;3.83;;
12554;SDS011;6343;50.868;4.700;2023-05-18T02:20:03;11.20;;;3.40;;
12554;SDS011;6343;50.868;4.700;2023-05-18T02:22:33;13.23;;;3.47;;
12554;SDS011;6343;50.868;4.700;2023-05-18T02:24:59;11.57;;;3.53;;
12554;SDS011;6343;50.868;4.700;2023-05-18T02:27:25;8.97;;;3.40;;
12554;SDS011;6343;50.868;4.700;2023-05-18T02:29:52;16.13;;;3.90;;
12554;SDS011;6343;50.868;4.700;2023-05-18T02:32:18;7.77;;;3.80;;
12554;SDS011;6343;50.868;4.700;2023-05-18T02:34:45;13.93;;;3.70;;
12554;SDS011;6343;50.868;4.700;2023-05-18T02:37:14;7.87;;;3.07;;
12554;SDS011;6343;50.868;4.700;2023-05-18T02:39:40;8.83;;;3.43;;
12554;SDS011;6343;50.868;4.700;2023-05-18T02:42:06;9.20;;;3.63;;
12554;SDS011;6343;50.868;4.700;2023-05-18T02:44:32;12.33;;;3.10;;
12554;SDS011;6343;50.868;4.700;2023-05-18T02:46:58;11.60;;;3.40;;
12554;SDS011;6343;50.868;4.700;2023-05-18T02:49:25;16.27;;;3.50;;
12554;SDS011;6343;50.868;4.700;2023-05-18T02:51:51;6.80;;;3.50;;
12554;SDS011;6343;50.868;4.700;2023-05-18T02:54:17;10.03;;;3.70;;
12554;SDS011;6343;50.868;4.700;2023-05-18T02:56:43;12.57;;;3.90;;
12554;SDS011;6343;50.868;4.700;2023-05-18T02:59:09;9.83;;;4.13;;
12554;SDS011;6343;50.868;4.700;2023-05-18T03:01:35;7.47;;;3.57;;
12554;SDS011;6343;50.868;4.700;2023-05-18T03:04:01;11.53;;;3.77;;
12554;SDS011;6343;50.868;4.700;2023-05-18T03:06:28;10.00;;;3.70;;
12554;SDS011;6343;50.868;4.700;2023-05-18T03:08:54;12.90;;;3.60;;
12554;SDS011;6343;50.868;4.700;2023-05-18T03:11:21;10.80;;;4.37;;
12554;SDS011;6343;50.868;4.700;2023-05-18T03:13:47;12.03;;;3.67;;
12554;SDS011;6343;50.868;4.700;2023-05-18T03:16:13;10.07;;;4.00;;
12554;SDS011;6343;50.868;4.700;2023-05-18T03:18:40;9.30;;;3.87;;
12554;SDS011;6343;50.868;4.700;2023-05-18T03:21:06;11.77;;;4.03;;
12554;SDS011;6343;50.868;4.700;2023-05-18T03:23:32;14.37;;;3.87;;
12554;SDS011;6343;50.868;4.700;2023-05-18T03:25:59;12.30;;;3.87;;
12554;SDS011;6343;50.868;4.700;2023-05-18T03:28:26;9.70;;;3.70;;
12554;SDS011;6343;50.868;4.700;2023-05-18T03:30:52;11.13;;;4.40;;
12554;SDS011;6343;50.868;4.700;2023-05-18T03:33:19;12.97;;;3.67;;
12554;SDS011;6343;50.868;4.700;2023-05-18T03:35:45;9.87;;;4.20;;
12554;SDS011;6343;50.868;4.700;2023-05-18T03:38:11;13.60;;;3.67;;
12554;SDS011;6343;50.868;4.700;2023-05-18T03:40:37;9.23;;;3.93;;
12554;SDS011;6343;50.868;4.700;2023-05-18T03:43:03;10.17;;;3.87;;
12554;SDS011;6343;50.868;4.700;2023-05-18T03:45:29;12.67;;;4.47;;
12554;SDS011;6343;50.868;4.700;2023-05-18T03:47:55;8.63;;;3.20;;
12554;SDS011;6343;50.868;4.700;2023-05-18T03:50:21;9.00;;;4.20;;
12554;SDS011;6343;50.868;4.700;2023-05-18T03:52:47;8.47;;;3.70;;
12554;SDS011;6343;50.868;4.700;2023-05-18T03:55:14;9.03;;;3.50;;
12554;SDS011;6343;50.868;4.700;2023-05-18T03:57:41;12.00;;;4.00;;
12554;SDS011;6343;50.868;4.700;2023-05-18T04:00:07;10.83;;;4.00;;
12554;SDS011;6343;50.868;4.700;2023-05-18T04:02:36;10.37;;;4.40;;
12554;SDS011;6343;50.868;4.700;2023-05-18T04:05:02;15.23;;;4.43;;
12554;SDS011;6343;50.868;4.700;2023-05-18T04:07:29;10.20;;;3.80;;
12554;SDS011;6343;50.868;4.700;2023-05-18T04:09:55;11.57;;;4.07;;
12554;SDS011;6343;50.868;4.700;2023-05-18T04:12:22;10.77;;;4.17;;
12554;SDS011;6343;50.868;4.700;2023-05-18T04:14:48;12.50;;;3.90;;
12554;SDS011;6343;50.868;4.700;2023-05-18T04:17:17;11.53;;;4.20;;
12554;SDS011;6343;50.868;4.700;2023-05-18T04:19:46;8.77;;;3.67;;
12554;SDS011;6343;50.868;4.700;2023-05-18T04:22:13;13.87;;;3.80;;
12554;SDS011;6343;50.868;4.700;2023-05-18T04:24:39;7.90;;;3.67;;
12554;SDS011;6343;50.868;4.700;2023-05-18T04:27:09;14.73;;;4.00;;
12554;SDS011;6343;50.868;4.700;2023-05-18T04:29:36;8.53;;;4.00;;
12554;SDS011;6343;50.868;4.700;2023-05-18T04:32:06;11.57;;;3.90;;
12554;SDS011;6343;50.868;4.700;2023-05-18T04:34:32;11.10;;;3.80;;
12554;SDS011;6343;50.868;4.700;2023-05-18T04:37:00;8.97;;;3.93;;
12554;SDS011;6343;50.868;4.700;2023-05-18T04:39:29;8.13;;;3.80;;
12554;SDS011;6343;50.868;4.700;2023-05-18T04:41:56;11.23;;;3.93;;
12554;SDS011;6343;50.868;4.700;2023-05-18T04:44:27;13.33;;;4.00;;
12554;SDS011;6343;50.868;4.700;2023-05-18T04:46:53;10.53;;;3.90;;
12554;SDS011;6343;50.868;4.700;2023-05-18T04:49:20;16.10;;;4.27;;
12554;SDS011;6343;50.868;4.700;2023-05-18T04:51:50;9.63;;;3.77;;
12554;SDS011;6343;50.868;4.700;2023-05-18T04:54:20;11.47;;;4.20;;
12554;SDS011;6343;50.868;4.700;2023-05-18T04:56:47;15.63;;;4.17;;
12554;SDS011;6343;50.868;4.700;2023-05-18T04:59:13;8.37;;;3.97;;
12554;SDS011;6343;50.868;4.700;2023-05-18T05:01:40;9.80;;;3.60;;
12554;SDS011;6343;50.868;4.700;2023-05-18T05:04:06;9.83;;;4.10;;
12554;SDS011;6343;50.868;4.700;2023-05-18T05:06:32;9.37;;;3.83;;
12554;SDS011;6343;50.868;4.700;2023-05-18T05:08:58;10.40;;;4.07;;
12554;SDS011;6343;50.868;4.700;2023-05-18T05:11:24;11.97;;;4.43;;
12554;SDS011;6343;50.868;4.700;2023-05-18T05:13:50;11.60;;;4.20;;
12554;SDS011;6343;50.868;4.700;2023-05-18T05:16:16;9.97;;;3.93;;
12554;SDS011;6343;50.868;4.700;2023-05-18T05:18:42;6.07;;;3.47;;
12554;SDS011;6343;50.868;4.700;2023-05-18T05:21:08;11.83;;;3.70;;
12554;SDS011;6343;50.868;4.700;2023-05-18T05:23:34;8.50;;;3.90;;
12554;SDS011;6343;50.868;4.700;2023-05-18T05:26:00;9.00;;;4.10;;
12554;SDS011;6343;50.868;4.700;2023-05-18T05:28:26;8.83;;;4.00;;
12554;SDS011;6343;50.868;4.700;2023-05-18T05:30:53;7.67;;;4.00;;
12554;SDS011;6343;50.868;4.700;2023-05-18T05:33:19;13.10;;;4.23;;
12554;SDS011;6343;50.868;4.700;2023-05-18T05:35:45;10.80;;;3.90;;
12554;SDS011;6343;50.868;4.700;2023-05-18T05:38:11;9.57;;;3.83;;
12554;SDS011;6343;50.868;4.700;2023-05-18T05:40:37;10.60;;;3.47;;
12554;SDS011;6343;50.868;4.700;2023-05-18T05:43:03;14.90;;;4.20;;
12554;SDS011;6343;50.868;4.700;2023-05-18T05:45:30;6.50;;;3.87;;
12554;SDS011;6343;50.868;4.700;2023-05-18T05:47:56;7.60;;;4.10;;
12554;SDS011;6343;50.868;4.700;2023-05-18T05:50:22;10.30;;;4.50;;
12554;SDS011;6343;50.868;4.700;2023-05-18T05:52:48;16.20;;;4.33;;
12554;SDS011;6343;50.868;4.700;2023-05-18T05:55:14;9.80;;;3.73;;
12554;SDS011;6343;50.868;4.700;2023-05-18T05:57:40;12.60;;;3.77;;
12554;SDS011;6343;50.868;4.700;2023-05-18T06:00:10;9.97;;;4.33;;
12554;SDS011;6343;50.868;4.700;2023-05-18T06:02:37;11.30;;;3.93;;
12554;SDS011;6343;50.868;4.700;2023-05-18T06:05:04;9.00;;;4.10;;
12554;SDS011;6343;50.868;4.700;2023-05-18T06:07:31;8.83;;;3.90;;
12554;SDS011;6343;50.868;4.700;2023-05-18T06:09:57;15.40;;;4.33;;
12554;SDS011;6343;50.868;4.700;2023-05-18T06:12:23;8.87;;;4.13;;
12554;SDS011;6343;50.868;4.700;2023-05-18T06:14:50;9.63;;;4.00;;
12554;SDS011;6343;50.868;4.700;2023-05-18T06:17:21;8.70;;;3.80;;
12554;SDS011;6343;50.868;4.700;2023-05-18T06:19:48;9.10;;;3.93;;
12554;SDS011;6343;50.868;4.700;2023-05-18T06:22:14;9.30;;;4.07;;
12554;SDS011;6343;50.868;4.700;2023-05-18T06:24:40;8.23;;;4.57;;
12554;SDS011;6343;50.868;4.700;2023-05-18T06:27:07;10.03;;;4.57;;
12554;SDS011;6343;50.868;4.700;2023-05-18T06:29:33;8.60;;;3.70;;
12554;SDS011;6343;50.868;4.700;2023-05-18T06:31:59;12.67;;;4.97;;
12554;SDS011;6343;50.868;4.700;2023-05-18T06:34:25;10.20;;;4.20;;
12554;SDS011;6343;50.868;4.700;2023-05-18T06:36:51;8.23;;;4.20;;
12554;SDS011;6343;50.868;4.700;2023-05-18T06:39:17;7.67;;;3.70;;
12554;SDS011;6343;50.868;4.700;2023-05-18T06:41:43;12.17;;;4.40;;
12554;SDS011;6343;50.868;4.700;2023-05-18T06:44:10;11.07;;;4.07;;
12554;SDS011;6343;50.868;4.700;2023-05-18T06:46:37;8.77;;;3.97;;
12554;SDS011;6343;50.868;4.700;2023-05-18T06:49:03;10.00;;;4.67;;
12554;SDS011;6343;50.868;4.700;2023-05-18T06:51:29;7.07;;;4.07;;
12554;SDS011;6343;50.868;4.700;2023-05-18T06:53:56;9.47;;;4.03;;
12554;SDS011;6343;50.868;4.700;2023-05-18T06:56:22;7.77;;;3.97;;
12554;SDS011;6343;50.868;4.700;2023-05-18T06:58:48;9.17;;;3.87;;
12554;SDS011;6343;50.868;4.700;2023-05-18T07:01:14;11.60;;;4.17;;
12554;SDS011;6343;50.868;4.700;2023-05-18T07:03:42;10.20;;;4.40;;
12554;SDS011;6343;50.868;4.700;2023-05-18T07:06:08;10.87;;;4.23;;
12554;SDS011;6343;50.868;4.700;2023-05-18T07:08:34;8.70;;;3.77;;
12554;SDS011;6343;50.868;4.700;2023-05-18T07:11:04;8.93;;;4.47;;
12554;SDS011;6343;50.868;4.700;2023-05-18T07:13:31;9.60;;;4.17;;
12554;SDS011;6343;50.868;4.700;2023-05-18T07:15:57;8.93;;;4.40;;
12554;SDS011;6343;50.868;4.700;2023-05-18T07:18:23;11.90;;;4.10;;
12554;SDS011;6343;50.868;4.700;2023-05-18T07:20:50;6.53;;;4.13;;
12554;SDS011;6343;50.868;4.700;2023-05-18T07:23:16;16.00;;;4.03;;
12554;SDS011;6343;50.868;4.700;2023-05-18T07:25:42;9.10;;;4.60;;
12554;SDS011;6343;50.868;4.700;2023-05-18T07:28:08;8.47;;;4.37;;
12554;SDS011;6343;50.868;4.700;2023-05-18T07:30:34;9.13;;;3.87;;
12554;SDS011;6343;50.868;4.700;2023-05-18T07:33:01;7.93;;;4.33;;
12554;SDS011;6343;50.868;4.700;2023-05-18T07:35:27;11.23;;;4.60;;
12554;SDS011;6343;50.868;4.700;2023-05-18T07:37:53;8.30;;;4.17;;
12554;SDS011;6343;50.868;4.700;2023-05-18T07:40:19;7.10;;;3.87;;
12554;SDS011;6343;50.868;4.700;2023-05-18T07:42:45;8.63;;;4.70;;
12554;SDS011;6343;50.868;4.700;2023-05-18T07:45:11;8.37;;;4.00;;
12554;SDS011;6343;50.868;4.700;2023-05-18T07:47:38;8.60;;;3.57;;
12554;SDS011;6343;50.868;4.700;2023-05-18T07:50:04;12.03;;;4.37;;
12554;SDS011;6343;50.868;4.700;2023-05-18T07:52:31;13.20;;;4.73;;
12554;SDS011;6343;50.868;4.700;2023-05-18T07:54:57;9.03;;;4.70;;
12554;SDS011;6343;50.868;4.700;2023-05-18T07:57:23;10.30;;;4.93;;
12554;SDS011;6343;50.868;4.700;2023-05-18T07:59:50;6.07;;;4.07;;
12554;SDS011;6343;50.868;4.700;2023-05-18T08:02:16;9.43;;;4.67;;
12554;SDS011;6343;50.868;4.700;2023-05-18T08:04:44;10.97;;;5.10;;
12554;SDS011;6343;50.868;4.700;2023-05-18T08:07:10;8.83;;;4.43;;
12554;SDS011;6343;50.868;4.700;2023-05-18T08:09:36;10.20;;;4.30;;
12554;SDS011;6343;50.868;4.700;2023-05-18T08:12:03;6.97;;;4.13;;
12554;SDS011;6343;50.868;4.700;2023-05-18T08:14:29;13.80;;;4.23;;
12554;SDS011;6343;50.868;4.700;2023-05-18T08:16:55;10.53;;;4.40;;
12554;SDS011;6343;50.868;4.700;2023-05-18T08:19:21;9.40;;;4.57;;
12554;SDS011;6343;50.868;4.700;2023-05-18T08:21:47;9.47;;;4.10;;
12554;SDS011;6343;50.868;4.700;2023-05-18T08:24:13;9.23;;;4.37;;
12554;SDS011;6343;50.868;4.700;2023-05-18T08:26:40;11.90;;;5.60;;
12554;SDS011;6343;50.868;4.700;2023-05-18T08:29:06;13.37;;;4.30;;
12554;SDS011;6343;50.868;4.700;2023-05-18T08:31:35;9.73;;;4.73;;
12554;SDS011;6343;50.868;4.700;2023-05-18T08:34:02;11.47;;;4.53;;
12554;SDS011;6343;50.868;4.700;2023-05-18T08:36:29;12.07;;;4.60;;
12554;SDS011;6343;50.868;4.700;2023-05-18T08:38:55;11.27;;;5.00;;
12554;SDS011;6343;50.868;4.700;2023-05-18T08:41:28;9.10;;;4.83;;
12554;SDS011;6343;50.868;4.700;2023-05-18T08:43:59;15.00;;;4.70;;
12554;SDS011;6343;50.868;4.700;2023-05-18T08:46:38;13.63;;;4.47;;
12554;SDS011;6343;50.868;4.700;2023-05-18T08:49:06;14.10;;;4.47;;
12554;SDS011;6343;50.868;4.700;2023-05-18T08:51:34;10.67;;;4.70;;
12554;SDS011;6343;50.868;4.700;2023-05-18T08:54:01;13.17;;;5.03;;
12554;SDS011;6343;50.868;4.700;2023-05-18T08:56:28;12.77;;;5.00;;
12554;SDS011;6343;50.868;4.700;2023-05-18T08:58:55;12.20;;;4.93;;
12554;SDS011;6343;50.868;4.700;2023-05-18T09:01:25;11.83;;;4.90;;
12554;SDS011;6343;50.868;4.700;2023-05-18T09:03:55;11.57;;;4.87;;
12554;SDS011;6343;50.868;4.700;2023-05-18T09:06:22;11.70;;;4.60;;
12554;SDS011;6343;50.868;4.700;2023-05-18T09:08:50;11.27;;;4.83;;
12554;SDS011;6343;50.868;4.700;2023-05-18T09:11:16;11.67;;;5.00;;
12554;SDS011;6343;50.868;4.700;2023-05-18T09:13:43;10.67;;;4.57;;
12554;SDS011;6343;50.868;4.700;2023-05-18T09:16:09;11.20;;;4.77;;
12554;SDS011;6343;50.868;4.700;2023-05-18T09:18:36;13.83;;;5.43;;
12554;SDS011;6343;50.868;4.700;2023-05-18T09:21:02;12.50;;;4.50;;
12554;SDS011;6343;50.868;4.700;2023-05-18T09:23:28;8.70;;;4.20;;
12554;SDS011;6343;50.868;4.700;2023-05-18T09:25:54;11.13;;;4.43;;
12554;SDS011;6343;50.868;4.700;2023-05-18T09:28:25;13.00;;;5.07;;
12554;SDS011;6343;50.868;4.700;2023-05-18T09:30:51;9.13;;;4.40;;
12554;SDS011;6343;50.868;4.700;2023-05-18T09:33:18;9.23;;;4.70;;
12554;SDS011;6343;50.868;4.700;2023-05-18T09:35:51;9.40;;;4.50;;
12554;SDS011;6343;50.868;4.700;2023-05-18T09:38:20;8.57;;;4.10;;
12554;SDS011;6343;50.868;4.700;2023-05-18T09:40:47;14.27;;;4.43;;
12554;SDS011;6343;50.868;4.700;2023-05-18T09:43:15;10.40;;;4.60;;
12554;SDS011;6343;50.868;4.700;2023-05-18T09:45:42;8.50;;;4.27;;
12554;SDS011;6343;50.868;4.700;2023-05-18T09:48:08;7.77;;;4.53;;
12554;SDS011;6343;50.868;4.700;2023-05-18T09:50:35;7.17;;;3.40;;
12554;SDS011;6343;50.868;4.700;2023-05-18T09:53:11;11.70;;;3.67;;
12554;SDS011;6343;50.868;4.700;2023-05-18T09:55:39;12.03;;;3.90;;
12554;SDS011;6343;50.868;4.700;2023-05-18T09:58:09;12.23;;;3.07;;
12554;SDS011;6343;50.868;4.700;2023-05-18T10:00:42;10.80;;;3.27;;
12554;SDS011;6343;50.868;4.700;2023-05-18T10:03:16;6.87;;;3.10;;
12554;SDS011;6343;50.868;4.700;2023-05-18T10:05:42;5.47;;;2.90;;
12554;SDS011;6343;50.868;4.700;2023-05-18T10:08:08;8.63;;;2.83;;
12554;SDS011;6343;50.868;4.700;2023-05-18T10:10:37;6.73;;;3.40;;
12554;SDS011;6343;50.868;4.700;2023-05-18T10:13:05;10.00;;;3.27;;
12554;SDS011;6343;50.868;4.700;2023-05-18T10:15:31;7.27;;;3.20;;
12554;SDS011;6343;50.868;4.700;2023-05-18T10:17:57;9.90;;;3.27;;
12554;SDS011;6343;50.868;4.700;2023-05-18T10:20:24;14.13;;;3.67;;
12554;SDS011;6343;50.868;4.700;2023-05-18T10:22:51;7.77;;;2.93;;
12554;SDS011;6343;50.868;4.700;2023-05-18T10:25:20;7.43;;;2.90;;
12554;SDS011;6343;50.868;4.700;2023-05-18T10:27:48;7.80;;;3.20;;
12554;SDS011;6343;50.868;4.700;2023-05-18T10:30:14;9.27;;;3.00;;
12554;SDS011;6343;50.868;4.700;2023-05-18T10:32:43;7.13;;;3.10;;
12554;SDS011;6343;50.868;4.700;2023-05-18T10:35:10;9.30;;;3.00;;
12554;SDS011;6343;50.868;4.700;2023-05-18T10:37:37;9.50;;;2.80;;
12554;SDS011;6343;50.868;4.700;2023-05-18T10:40:04;9.20;;;3.30;;
12554;SDS011;6343;50.868;4.700;2023-05-18T10:42:31;9.10;;;2.93;;
12554;SDS011;6343;50.868;4.700;2023-05-18T10:44:57;6.20;;;2.80;;
12554;SDS011;6343;50.868;4.700;2023-05-18T10:47:28;6.07;;;2.80;;
12554;SDS011;6343;50.868;4.700;2023-05-18T10:49:57;9.23;;;3.10;;
12554;SDS011;6343;50.868;4.700;2023-05-18T10:52:26;9.50;;;3.27;;
12554;SDS011;6343;50.868;4.700;2023-05-18T10:54:58;6.17;;;2.90;;
12554;SDS011;6343;50.868;4.700;2023-05-18T10:57:25;7.40;;;3.17;;
12554;SDS011;6343;50.868;4.700;2023-05-18T10:59:54;5.57;;;3.03;;
12554;SDS011;6343;50.868;4.700;2023-05-18T11:02:20;7.77;;;4.00;;
12554;SDS011;6343;50.868;4.700;2023-05-18T11:04:46;11.07;;;3.60;;
12554;SDS011;6343;50.868;4.700;2023-05-18T11:07:13;8.47;;;3.87;;
12554;SDS011;6343;50.868;4.700;2023-05-18T11:09:41;8.50;;;3.70;;
12554;SDS011;6343;50.868;4.700;2023-05-18T11:12:11;8.87;;;3.80;;
12554;SDS011;6343;50.868;4.700;2023-05-18T11:14:46;8.80;;;4.03;;
12554;SDS011;6343;50.868;4.700;2023-05-18T11:17:22;6.83;;;3.50;;
12554;SDS011;6343;50.868;4.700;2023-05-18T11:27:56;6.90;;;3.33;;
12554;SDS011;6343;50.868;4.700;2023-05-18T11:30:26;7.27;;;3.50;;
12554;SDS011;6343;50.868;4.700;2023-05-18T11:32:54;6.77;;;3.37;;
12554;SDS011;6343;50.868;4.700;2023-05-18T11:35:32;7.57;;;3.23;;
12554;SDS011;6343;50.868;4.700;2023-05-18T11:38:06;7.60;;;3.33;;
12554;SDS011;6343;50.868;4.700;2023-05-18T11:43:23;7.63;;;3.57;;
12554;SDS011;6343;50.868;4.700;2023-05-18T11:45:54;10.87;;;4.17;;
12554;SDS011;6343;50.868;4.700;2023-05-18T11:48:24;8.07;;;3.07;;
12554;SDS011;6343;50.868;4.700;2023-05-18T11:50:54;7.83;;;3.23;;
12554;SDS011;6343;50.868;4.700;2023-05-18T11:53:24;5.97;;;3.10;;
12554;SDS011;6343;50.868;4.700;2023-05-18T11:55:51;7.17;;;3.20;;
12554;SDS011;6343;50.868;4.700;2023-05-18T11:58:26;7.57;;;3.97;;
12554;SDS011;6343;50.868;4.700;2023-05-18T12:00:58;5.63;;;3.63;;
12554;SDS011;6343;50.868;4.700;2023-05-18T12:03:25;8.97;;;3.40;;
12554;SDS011;6343;50.868;4.700;2023-05-18T12:05:51;9.73;;;3.70;;
12554;SDS011;6343;50.868;4.700;2023-05-18T12:08:18;5.63;;;3.37;;
12554;SDS011;6343;50.868;4.700;2023-05-18T12:10:44;8.97;;;3.97;;
12554;SDS011;6343;50.868;4.700;2023-05-18T12:13:12;13.27;;;4.57;;
12554;SDS011;6343;50.868;4.700;2023-05-18T12:15:38;5.80;;;3.77;;
12554;SDS011;6343;50.868;4.700;2023-05-18T12:18:04;11.57;;;5.13;;
12554;SDS011;6343;50.868;4.700;2023-05-18T12:20:31;9.87;;;4.47;;
12554;SDS011;6343;50.868;4.700;2023-05-18T12:22:59;6.93;;;4.07;;
12554;SDS011;6343;50.868;4.700;2023-05-18T12:25:26;8.43;;;3.80;;
12554;SDS011;6343;50.868;4.700;2023-05-18T12:27:53;9.50;;;4.10;;
12554;SDS011;6343;50.868;4.700;2023-05-18T12:30:23;10.50;;;4.33;;
12554;SDS011;6343;50.868;4.700;2023-05-18T12:32:53;9.20;;;4.20;;
12554;SDS011;6343;50.868;4.700;2023-05-18T12:35:20;16.00;;;4.40;;
12554;SDS011;6343;50.868;4.700;2023-05-18T12:37:47;9.77;;;4.10;;
12554;SDS011;6343;50.868;4.700;2023-05-18T12:40:14;8.23;;;3.87;;
12554;SDS011;6343;50.868;4.700;2023-05-18T12:42:53;9.80;;;4.17;;
12554;SDS011;6343;50.868;4.700;2023-05-18T12:45:25;10.57;;;4.40;;
12554;SDS011;6343;50.868;4.700;2023-05-18T12:47:52;10.43;;;4.67;;
12554;SDS011;6343;50.868;4.700;2023-05-18T12:50:22;14.27;;;3.90;;
12554;SDS011;6343;50.868;4.700;2023-05-18T12:52:53;11.67;;;5.23;;
12554;SDS011;6343;50.868;4.700;2023-05-18T12:55:20;11.00;;;5.17;;
12554;SDS011;6343;50.868;4.700;2023-05-18T13:00:34;8.73;;;4.57;;
12554;SDS011;6343;50.868;4.700;2023-05-18T13:03:06;8.10;;;5.00;;
12554;SDS011;6343;50.868;4.700;2023-05-18T13:05:32;11.93;;;5.10;;
12554;SDS011;6343;50.868;4.700;2023-05-18T13:07:59;7.17;;;4.93;;
12554;SDS011;6343;50.868;4.700;2023-05-18T13:10:25;5.57;;;4.70;;
12554;SDS011;6343;50.868;4.700;2023-05-18T13:12:54;9.57;;;5.03;;
12554;SDS011;6343;50.868;4.700;2023-05-18T13:15:25;9.50;;;4.47;;
12554;SDS011;6343;50.868;4.700;2023-05-18T13:20:24;7.70;;;4.50;;
12554;SDS011;6343;50.868;4.700;2023-05-18T13:22:54;14.10;;;4.23;;
12554;SDS011;6343;50.868;4.700;2023-05-18T13:25:23;8.70;;;4.50;;
12554;SDS011;6343;50.868;4.700;2023-05-18T13:27:50;6.53;;;4.40;;
12554;SDS011;6343;50.868;4.700;2023-05-18T13:30:18;9.50;;;4.40;;
12554;SDS011;6343;50.868;4.700;2023-05-18T13:32:45;7.03;;;3.97;;
12554;SDS011;6343;50.868;4.700;2023-05-18T13:35:11;7.57;;;3.20;;
12554;SDS011;6343;50.868;4.700;2023-05-18T13:37:37;7.77;;;3.30;;
12554;SDS011;6343;50.868;4.700;2023-05-18T13:40:04;10.70;;;3.97;;
12554;SDS011;6343;50.868;4.700;2023-05-18T13:42:30;7.93;;;3.30;;
12554;SDS011;6343;50.868;4.700;2023-05-18T13:44:56;11.73;;;3.80;;
12554;SDS011;6343;50.868;4.700;2023-05-18T13:47:22;10.53;;;3.43;;
12554;SDS011;6343;50.868;4.700;2023-05-18T13:49:48;7.60;;;3.13;;
12554;SDS011;6343;50.868;4.700;2023-05-18T13:52:14;5.40;;;3.30;;
12554;SDS011;6343;50.868;4.700;2023-05-18T13:54:40;8.73;;;3.40;;
12554;SDS011;6343;50.868;4.700;2023-05-18T13:57:07;7.13;;;3.50;;
12554;SDS011;6343;50.868;4.700;2023-05-18T13:59:33;9.23;;;3.60;;
12554;SDS011;6343;50.868;4.700;2023-05-18T14:01:59;6.60;;;3.53;;
12554;SDS011;6343;50.868;4.700;2023-05-18T14:04:26;9.57;;;3.43;;
12554;SDS011;6343;50.868;4.700;2023-05-18T14:06:52;10.83;;;3.47;;
12554;SDS011;6343;50.868;4.700;2023-05-18T14:09:20;9.57;;;3.57;;
12554;SDS011;6343;50.868;4.700;2023-05-18T14:11:46;11.10;;;3.67;;
12554;SDS011;6343;50.868;4.700;2023-05-18T14:14:12;10.77;;;3.47;;
12554;SDS011;6343;50.868;4.700;2023-05-18T14:16:38;6.73;;;3.40;;
12554;SDS011;6343;50.868;4.700;2023-05-18T14:19:04;7.13;;;3.13;;
12554;SDS011;6343;50.868;4.700;2023-05-18T14:21:30;10.10;;;3.70;;
12554;SDS011;6343;50.868;4.700;2023-05-18T14:23:56;13.37;;;3.67;;
12554;SDS011;6343;50.868;4.700;2023-05-18T14:26:27;7.27;;;2.90;;
12554;SDS011;6343;50.868;4.700;2023-05-18T14:28:53;7.37;;;3.43;;
12554;SDS011;6343;50.868;4.700;2023-05-18T14:31:20;7.23;;;2.93;;
12554;SDS011;6343;50.868;4.700;2023-05-18T14:33:46;14.70;;;3.40;;
12554;SDS011;6343;50.868;4.700;2023-05-18T14:36:12;10.00;;;3.37;;
12554;SDS011;6343;50.868;4.700;2023-05-18T14:38:38;7.63;;;2.83;;
12554;SDS011;6343;50.868;4.700;2023-05-18T14:41:05;6.37;;;3.00;;
12554;SDS011;6343;50.868;4.700;2023-05-18T14:43:31;7.83;;;3.30;;
12554;SDS011;6343;50.868;4.700;2023-05-18T14:45:57;8.50;;;2.97;;
12554;SDS011;6343;50.868;4.700;2023-05-18T14:48:23;8.73;;;3.67;;
12554;SDS011;6343;50.868;4.700;2023-05-18T14:50:49;6.87;;;3.40;;
12554;SDS011;6343;50.868;4.700;2023-05-18T14:53:15;6.17;;;3.07;;
12554;SDS011;6343;50.868;4.700;2023-05-18T14:55:41;5.30;;;3.37;;
12554;SDS011;6343;50.868;4.700;2023-05-18T14:58:07;5.30;;;3.20;;
12554;SDS011;6343;50.868;4.700;2023-05-18T15:00:38;9.47;;;3.00;;
12554;SDS011;6343;50.868;4.700;2023-05-18T15:03:05;5.03;;;3.00;;
12554;SDS011;6343;50.868;4.700;2023-05-18T15:05:31;7.83;;;3.43;;
12554;SDS011;6343;50.868;4.700;2023-05-18T15:07:57;7.43;;;3.37;;
12554;SDS011;6343;50.868;4.700;2023-05-18T15:10:23;10.50;;;3.37;;
12554;SDS011;6343;50.868;4.700;2023-05-18T15:12:49;11.20;;;3.50;;
12554;SDS011;6343;50.868;4.700;2023-05-18T15:15:15;9.57;;;3.67;;
12554;SDS011;6343;50.868;4.700;2023-05-18T15:17:42;9.00;;;3.70;;
12554;SDS011;6343;50.868;4.700;2023-05-18T15:20:08;6.00;;;3.03;;